sensor_id;sensor_type;location;lat;lon;timestamp;pressure;altitude;pressure_sealevel;temperature;humidity
74975;BME280;68459;50.836;19.138;2024-01-15T00:02:24;96747.88;;;-0.52;80.25
74975;BME280;68459;50.836;19.138;2024-01-15T00:05:28;96740.19;;;-0.54;80.23
74975;BME280;68459;50.836;19.138;2024-01-15T00:08:31;96732.44;;;-0.55;80.46
74975;BME280;68459;50.836;19.138;2024-01-15T00:11:35;96731.19;;;-0.53;81.12
74975;BME280;68459;50.836;19.138;2024-01-15T00:14:39;96719.78;;;-0.53;80.84
74975;BME280;68459;50.836;19.138;2024-01-15T00:17:45;96699.84;;;-0.56;80.72
74975;BME280;68459;50.836;19.138;2024-01-15T00:20:48;96699.03;;;-0.50;80.56
74975;BME280;68459;50.836;19.138;2024-01-15T00:23:52;96702.47;;;-0.49;80.77
74975;BME280;68459;50.836;19.138;2024-01-15T00:26:56;96697.00;;;-0.48;80.09
74975;BME280;68459;50.836;19.138;2024-01-15T00:30:00;96694.16;;;-0.46;80.79
74975;BME280;68459;50.836;19.138;2024-01-15T00:33:06;96692.94;;;-0.44;80.63
74975;BME280;68459;50.836;19.138;2024-01-15T00:36:10;96703.94;;;-0.40;80.42
74975;BME280;68459;50.836;19.138;2024-01-15T00:39:13;96697.41;;;-0.38;80.28
74975;BME280;68459;50.836;19.138;2024-01-15T00:42:19;96682.31;;;-0.37;80.30
74975;BME280;68459;50.836;19.138;2024-01-15T00:45:22;96700.25;;;-0.39;80.14
74975;BME280;68459;50.836;19.138;2024-01-15T00:48:28;96698.66;;;-0.40;80.28
74975;BME280;68459;50.836;19.138;2024-01-15T00:51:32;96671.56;;;-0.42;79.83
74975;BME280;68459;50.836;19.138;2024-01-15T00:54:36;96674.78;;;-0.47;80.04
74975;BME280;68459;50.836;19.138;2024-01-15T00:57:40;96669.69;;;-0.48;80.41
74975;BME280;68459;50.836;19.138;2024-01-15T01:00:44;96674.56;;;-0.52;80.38
74975;BME280;68459;50.836;19.138;2024-01-15T01:03:49;96674.56;;;-0.52;80.64
74975;BME280;68459;50.836;19.138;2024-01-15T01:06:54;96677.44;;;-0.47;80.74
74975;BME280;68459;50.836;19.138;2024-01-15T01:09:57;96680.50;;;-0.43;80.36
74975;BME280;68459;50.836;19.138;2024-01-15T01:13:02;96668.09;;;-0.43;80.28
74975;BME280;68459;50.836;19.138;2024-01-15T01:16:06;96660.97;;;-0.42;80.40
74975;BME280;68459;50.836;19.138;2024-01-15T01:19:12;96646.47;;;-0.46;80.15
74975;BME280;68459;50.836;19.138;2024-01-15T01:22:16;96638.34;;;-0.45;80.53
74975;BME280;68459;50.836;19.138;2024-01-15T01:25:20;96635.06;;;-0.47;80.23
74975;BME280;68459;50.836;19.138;2024-01-15T01:28:24;96650.34;;;-0.49;80.53
74975;BME280;68459;50.836;19.138;2024-01-15T01:31:28;96648.50;;;-0.48;80.70
74975;BME280;68459;50.836;19.138;2024-01-15T01:34:40;96631.41;;;-0.52;80.91
74975;BME280;68459;50.836;19.138;2024-01-15T01:37:45;96621.25;;;-0.55;80.46
74975;BME280;68459;50.836;19.138;2024-01-15T01:40:48;96621.25;;;-0.55;80.58
74975;BME280;68459;50.836;19.138;2024-01-15T01:43:52;96607.38;;;-0.57;80.89
74975;BME280;68459;50.836;19.138;2024-01-15T01:46:56;96610.03;;;-0.57;81.13
74975;BME280;68459;50.836;19.138;2024-01-15T01:50:03;96597.81;;;-0.58;81.27
74975;BME280;68459;50.836;19.138;2024-01-15T01:53:08;96608.59;;;-0.60;80.90
74975;BME280;68459;50.836;19.138;2024-01-15T01:56:12;96601.47;;;-0.59;80.92
74975;BME280;68459;50.836;19.138;2024-01-15T01:59:17;96590.06;;;-0.60;80.85
74975;BME280;68459;50.836;19.138;2024-01-15T02:02:21;96598.44;;;-0.56;80.50
74975;BME280;68459;50.836;19.138;2024-01-15T02:05:27;96605.75;;;-0.52;80.95
74975;BME280;68459;50.836;19.138;2024-01-15T02:08:31;96595.59;;;-0.55;80.90
74975;BME280;68459;50.836;19.138;2024-01-15T02:11:35;96590.88;;;-0.53;81.04
74975;BME280;68459;50.836;19.138;2024-01-15T02:14:40;96590.06;;;-0.53;80.62
74975;BME280;68459;50.836;19.138;2024-01-15T02:17:57;96576.03;;;-0.54;81.09
74975;BME280;68459;50.836;19.138;2024-01-15T02:21:04;96571.31;;;-0.52;81.11
74975;BME280;68459;50.836;19.138;2024-01-15T02:24:09;96563.81;;;-0.55;80.86
74975;BME280;68459;50.836;19.138;2024-01-15T02:27:13;96563.59;;;-0.60;81.12
74975;BME280;68459;50.836;19.138;2024-01-15T02:30:17;96546.28;;;-0.62;80.89
74975;BME280;68459;50.836;19.138;2024-01-15T02:33:21;96556.88;;;-0.62;81.32
74975;BME280;68459;50.836;19.138;2024-01-15T02:36:25;96543.03;;;-0.64;80.81
74975;BME280;68459;50.836;19.138;2024-01-15T02:39:31;96537.94;;;-0.66;81.60
74975;BME280;68459;50.836;19.138;2024-01-15T02:42:35;96532.44;;;-0.64;81.09
74975;BME280;68459;50.836;19.138;2024-01-15T02:45:39;96521.25;;;-0.66;80.83
74975;BME280;68459;50.836;19.138;2024-01-15T02:48:42;96523.91;;;-0.66;81.32
74975;BME280;68459;50.836;19.138;2024-01-15T02:51:47;96517.38;;;-0.64;80.80
74975;BME280;68459;50.836;19.138;2024-01-15T02:54:52;96510.06;;;-0.62;80.56
74975;BME280;68459;50.836;19.138;2024-01-15T02:57:56;96506.59;;;-0.62;80.74
74975;BME280;68459;50.836;19.138;2024-01-15T03:01:00;96505.56;;;-0.61;80.67
74975;BME280;68459;50.836;19.138;2024-01-15T03:04:05;96502.72;;;-0.60;80.53
74975;BME280;68459;50.836;19.138;2024-01-15T03:07:09;96491.31;;;-0.60;80.35
74975;BME280;68459;50.836;19.138;2024-01-15T03:10:14;96485.63;;;-0.57;80.19
74975;BME280;68459;50.836;19.138;2024-01-15T03:13:19;96479.09;;;-0.55;80.10
74975;BME280;68459;50.836;19.138;2024-01-15T03:16:23;96481.50;;;-0.53;80.37
74975;BME280;68459;50.836;19.138;2024-01-15T03:19:26;96469.72;;;-0.51;79.77
74975;BME280;68459;50.836;19.138;2024-01-15T03:22:31;96458.31;;;-0.51;79.96
74975;BME280;68459;50.836;19.138;2024-01-15T03:25:36;96466.84;;;-0.49;79.63
74975;BME280;68459;50.836;19.138;2024-01-15T03:28:40;96473.78;;;-0.48;79.33
74975;BME280;68459;50.836;19.138;2024-01-15T03:31:44;96468.47;;;-0.48;79.37
74975;BME280;68459;50.836;19.138;2024-01-15T03:34:48;96463.59;;;-0.45;78.88
74975;BME280;68459;50.836;19.138;2024-01-15T03:37:52;96477.03;;;-0.46;78.90
74975;BME280;68459;50.836;19.138;2024-01-15T03:40:57;96459.94;;;-0.44;79.26
74975;BME280;68459;50.836;19.138;2024-01-15T03:44:01;96463.78;;;-0.46;79.38
74975;BME280;68459;50.836;19.138;2024-01-15T03:47:07;96455.44;;;-0.43;78.60
74975;BME280;68459;50.836;19.138;2024-01-15T03:50:11;96446.47;;;-0.42;79.02
74975;BME280;68459;50.836;19.138;2024-01-15T03:53:15;96450.97;;;-0.43;78.79
74975;BME280;68459;50.836;19.138;2024-01-15T03:56:20;96454.22;;;-0.41;78.85
74975;BME280;68459;50.836;19.138;2024-01-15T03:59:24;96449.28;;;-0.37;78.69
74975;BME280;68459;50.836;19.138;2024-01-15T04:02:28;96447.25;;;-0.35;78.39
74975;BME280;68459;50.836;19.138;2024-01-15T04:05:32;96447.25;;;-0.35;78.62
74975;BME280;68459;50.836;19.138;2024-01-15T04:08:36;96442.16;;;-0.37;78.59
74975;BME280;68459;50.836;19.138;2024-01-15T04:11:41;96442.38;;;-0.38;78.47
74975;BME280;68459;50.836;19.138;2024-01-15T04:14:45;96453.97;;;-0.39;78.33
74975;BME280;68459;50.836;19.138;2024-01-15T04:17:49;96445.03;;;-0.38;79.00
74975;BME280;68459;50.836;19.138;2024-01-15T04:20:53;96440.53;;;-0.38;78.60
74975;BME280;68459;50.836;19.138;2024-01-15T04:23:57;96438.91;;;-0.39;78.85
74975;BME280;68459;50.836;19.138;2024-01-15T04:27:02;96429.34;;;-0.40;78.68
74975;BME280;68459;50.836;19.138;2024-01-15T04:30:07;96430.97;;;-0.39;79.10
74975;BME280;68459;50.836;19.138;2024-01-15T04:33:12;96433.84;;;-0.40;79.36
74975;BME280;68459;50.836;19.138;2024-01-15T04:36:16;96424.03;;;-0.40;79.01
74975;BME280;68459;50.836;19.138;2024-01-15T04:39:20;96428.56;;;-0.40;78.96
74975;BME280;68459;50.836;19.138;2024-01-15T04:42:26;96445.88;;;-0.44;79.06
74975;BME280;68459;50.836;19.138;2024-01-15T04:45:30;96438.13;;;-0.46;79.32
74975;BME280;68459;50.836;19.138;2024-01-15T04:48:34;96421.44;;;-0.46;79.11
74975;BME280;68459;50.836;19.138;2024-01-15T04:51:38;96435.50;;;-0.46;79.07
74975;BME280;68459;50.836;19.138;2024-01-15T04:54:42;96442.00;;;-0.48;78.47
74975;BME280;68459;50.836;19.138;2024-01-15T04:57:47;96434.06;;;-0.48;79.20
74975;BME280;68459;50.836;19.138;2024-01-15T05:00:51;96446.09;;;-0.52;79.37
74975;BME280;68459;50.836;19.138;2024-01-15T05:03:56;96452.63;;;-0.55;79.37
74975;BME280;68459;50.836;19.138;2024-01-15T05:07:02;96431.06;;;-0.58;79.52
74975;BME280;68459;50.836;19.138;2024-01-15T05:10:07;96435.34;;;-0.64;79.46
74975;BME280;68459;50.836;19.138;2024-01-15T05:13:12;96422.31;;;-0.65;79.85
74975;BME280;68459;50.836;19.138;2024-01-15T05:16:16;96432.31;;;-0.67;79.57
74975;BME280;68459;50.836;19.138;2024-01-15T05:19:21;96420.66;;;-0.66;79.95
74975;BME280;68459;50.836;19.138;2024-01-15T05:22:25;96420.09;;;-0.68;79.82
74975;BME280;68459;50.836;19.138;2024-01-15T05:25:29;96415.81;;;-0.69;80.03
74975;BME280;68459;50.836;19.138;2024-01-15T05:28:34;96426.59;;;-0.71;80.05
74975;BME280;68459;50.836;19.138;2024-01-15T05:31:38;96428.66;;;-0.73;79.73
74975;BME280;68459;50.836;19.138;2024-01-15T05:34:42;96420.91;;;-0.75;79.64
74975;BME280;68459;50.836;19.138;2024-01-15T05:37:46;96421.53;;;-0.73;80.23
74975;BME280;68459;50.836;19.138;2024-01-15T05:40:50;96411.13;;;-0.74;80.00
74975;BME280;68459;50.836;19.138;2024-01-15T05:43:55;96426.81;;;-0.73;80.33
74975;BME280;68459;50.836;19.138;2024-01-15T05:46:59;96421.72;;;-0.67;79.93
74975;BME280;68459;50.836;19.138;2024-01-15T05:50:04;96423.31;;;-0.66;80.02
74975;BME280;68459;50.836;19.138;2024-01-15T05:53:09;96414.97;;;-0.63;79.83
74975;BME280;68459;50.836;19.138;2024-01-15T05:56:13;96403.16;;;-0.61;79.66
74975;BME280;68459;50.836;19.138;2024-01-15T05:59:18;96410.91;;;-0.59;79.62
74975;BME280;68459;50.836;19.138;2024-01-15T06:02:22;96402.75;;;-0.58;79.52
74975;BME280;68459;50.836;19.138;2024-01-15T06:05:26;96409.06;;;-0.59;79.69
74975;BME280;68459;50.836;19.138;2024-01-15T06:08:30;96402.53;;;-0.56;79.75
74975;BME280;68459;50.836;19.138;2024-01-15T06:11:34;96408.03;;;-0.58;79.73
74975;BME280;68459;50.836;19.138;2024-01-15T06:14:39;96398.72;;;-0.67;79.23
74975;BME280;68459;50.836;19.138;2024-01-15T06:17:43;96403.81;;;-0.72;79.55
74975;BME280;68459;50.836;19.138;2024-01-15T06:20:47;96400.16;;;-0.78;79.54
74975;BME280;68459;50.836;19.138;2024-01-15T06:23:51;96390.19;;;-0.76;79.61
74975;BME280;68459;50.836;19.138;2024-01-15T06:26:55;96393.63;;;-0.68;80.02
74975;BME280;68459;50.836;19.138;2024-01-15T06:30:00;96400.72;;;-0.62;79.30
74975;BME280;68459;50.836;19.138;2024-01-15T06:33:05;96402.94;;;-0.59;79.55
74975;BME280;68459;50.836;19.138;2024-01-15T06:36:09;96389.91;;;-0.54;79.05
74975;BME280;68459;50.836;19.138;2024-01-15T06:39:13;96404.75;;;-0.47;78.58
74975;BME280;68459;50.836;19.138;2024-01-15T06:42:17;96401.47;;;-0.42;79.10
74975;BME280;68459;50.836;19.138;2024-01-15T06:45:23;96408.41;;;-0.41;79.02
74975;BME280;68459;50.836;19.138;2024-01-15T06:48:27;96410.19;;;-0.35;78.29
74975;BME280;68459;50.836;19.138;2024-01-15T06:51:31;96407.13;;;-0.32;78.49
74975;BME280;68459;50.836;19.138;2024-01-15T06:54:35;96415.47;;;-0.28;78.23
74975;BME280;68459;50.836;19.138;2024-01-15T06:57:39;96418.47;;;-0.25;78.36
74975;BME280;68459;50.836;19.138;2024-01-15T07:00:44;96419.69;;;-0.21;78.25
74975;BME280;68459;50.836;19.138;2024-01-15T07:03:48;96423.78;;;-0.18;78.07
74975;BME280;68459;50.836;19.138;2024-01-15T07:06:52;96427.22;;;-0.18;78.04
74975;BME280;68459;50.836;19.138;2024-01-15T07:09:56;96417.25;;;-0.16;78.10
74975;BME280;68459;50.836;19.138;2024-01-15T07:13:00;96424.97;;;-0.14;77.49
74975;BME280;68459;50.836;19.138;2024-01-15T07:16:05;96441.69;;;-0.14;77.94
74975;BME280;68459;50.836;19.138;2024-01-15T07:19:09;96439.63;;;-0.12;77.71
74975;BME280;68459;50.836;19.138;2024-01-15T07:22:14;96448.00;;;-0.15;77.94
74975;BME280;68459;50.836;19.138;2024-01-15T07:25:19;96448.06;;;-0.28;78.38
74975;BME280;68459;50.836;19.138;2024-01-15T07:28:23;96451.94;;;-0.37;78.76
74975;BME280;68459;50.836;19.138;2024-01-15T07:31:28;96473.16;;;-0.44;78.81
74975;BME280;68459;50.836;19.138;2024-01-15T07:34:32;96459.53;;;-0.47;79.20
74975;BME280;68459;50.836;19.138;2024-01-15T07:37:36;96449.34;;;-0.44;78.92
74975;BME280;68459;50.836;19.138;2024-01-15T07:40:40;96460.91;;;-0.38;79.01
74975;BME280;68459;50.836;19.138;2024-01-15T07:43:44;96454.38;;;-0.36;79.04
74975;BME280;68459;50.836;19.138;2024-01-15T07:46:50;96471.28;;;-0.30;78.69
74975;BME280;68459;50.836;19.138;2024-01-15T07:49:53;96467.19;;;-0.26;78.71
74975;BME280;68459;50.836;19.138;2024-01-15T07:52:59;96470.22;;;-0.22;78.63
74975;BME280;68459;50.836;19.138;2024-01-15T07:56:03;96476.94;;;-0.20;78.21
74975;BME280;68459;50.836;19.138;2024-01-15T07:59:08;96476.13;;;-0.20;78.49
74975;BME280;68459;50.836;19.138;2024-01-15T08:02:14;96492.84;;;-0.20;78.33
74975;BME280;68459;50.836;19.138;2024-01-15T08:05:19;96493.44;;;-0.18;78.29
74975;BME280;68459;50.836;19.138;2024-01-15T08:08:24;96498.94;;;-0.19;78.19
74975;BME280;68459;50.836;19.138;2024-01-15T08:11:28;96501.81;;;-0.21;78.45
74975;BME280;68459;50.836;19.138;2024-01-15T08:14:32;96490.59;;;-0.16;78.65
74975;BME280;68459;50.836;19.138;2024-01-15T08:17:38;96507.09;;;-0.14;78.06
74975;BME280;68459;50.836;19.138;2024-01-15T08:20:42;96490.75;;;-0.11;78.70
74975;BME280;68459;50.836;19.138;2024-01-15T08:23:46;96499.72;;;-0.06;78.32
74975;BME280;68459;50.836;19.138;2024-01-15T08:26:50;96495.78;;;0.04;78.29
74975;BME280;68459;50.836;19.138;2024-01-15T08:29:54;96489.06;;;0.08;78.46
74975;BME280;68459;50.836;19.138;2024-01-15T08:32:59;96508.19;;;0.16;78.10
74975;BME280;68459;50.836;19.138;2024-01-15T08:36:13;96483.69;;;0.21;77.95
74975;BME280;68459;50.836;19.138;2024-01-15T08:39:17;96492.03;;;0.24;77.80
74975;BME280;68459;50.836;19.138;2024-01-15T08:42:21;96487.97;;;0.22;77.17
74975;BME280;68459;50.836;19.138;2024-01-15T08:45:25;96487.56;;;0.18;77.42
74975;BME280;68459;50.836;19.138;2024-01-15T08:48:33;96491.66;;;0.21;77.46
74975;BME280;68459;50.836;19.138;2024-01-15T08:51:37;96495.50;;;0.25;77.22
74975;BME280;68459;50.836;19.138;2024-01-15T08:54:42;96489.34;;;0.31;77.35
74975;BME280;68459;50.836;19.138;2024-01-15T08:57:46;96490.94;;;0.39;76.99
74975;BME280;68459;50.836;19.138;2024-01-15T09:00:50;96504.34;;;0.44;76.81
74975;BME280;68459;50.836;19.138;2024-01-15T09:03:55;96498.25;;;0.43;76.68
74975;BME280;68459;50.836;19.138;2024-01-15T09:06:59;96495.81;;;0.42;76.76
74975;BME280;68459;50.836;19.138;2024-01-15T09:10:04;96485.38;;;0.47;77.19
74975;BME280;68459;50.836;19.138;2024-01-15T09:13:09;96500.44;;;0.53;76.45
74975;BME280;68459;50.836;19.138;2024-01-15T09:16:12;96492.03;;;0.56;76.48
74975;BME280;68459;50.836;19.138;2024-01-15T09:19:18;96487.94;;;0.60;76.44
74975;BME280;68459;50.836;19.138;2024-01-15T09:22:22;96490.81;;;0.58;76.23
74975;BME280;68459;50.836;19.138;2024-01-15T09:25:26;96494.91;;;0.54;76.49
74975;BME280;68459;50.836;19.138;2024-01-15T09:28:30;96488.78;;;0.54;76.18
74975;BME280;68459;50.836;19.138;2024-01-15T09:31:34;96483.72;;;0.52;76.23
74975;BME280;68459;50.836;19.138;2024-01-15T09:34:39;96498.00;;;0.51;76.18
74975;BME280;68459;50.836;19.138;2024-01-15T09:37:44;96507.81;;;0.51;76.05
74975;BME280;68459;50.836;19.138;2024-01-15T09:40:50;96493.34;;;0.47;76.26
74975;BME280;68459;50.836;19.138;2024-01-15T09:43:55;96481.31;;;0.44;76.33
74975;BME280;68459;50.836;19.138;2024-01-15T09:46:59;96473.34;;;0.51;76.16
74975;BME280;68459;50.836;19.138;2024-01-15T09:50:05;96478.56;;;0.57;75.67
74975;BME280;68459;50.836;19.138;2024-01-15T09:53:10;96463.88;;;0.61;75.63
74975;BME280;68459;50.836;19.138;2024-01-15T09:56:15;96475.69;;;0.65;75.05
74975;BME280;68459;50.836;19.138;2024-01-15T09:59:20;96483.41;;;0.67;74.82
74975;BME280;68459;50.836;19.138;2024-01-15T10:02:24;96479.34;;;0.64;74.17
74975;BME280;68459;50.836;19.138;2024-01-15T10:05:29;96474.47;;;0.61;73.88
74975;BME280;68459;50.836;19.138;2024-01-15T10:08:34;96489.78;;;0.59;74.59
74975;BME280;68459;50.836;19.138;2024-01-15T10:11:40;96489.41;;;0.56;73.62
74975;BME280;68459;50.836;19.138;2024-01-15T10:14:45;96483.28;;;0.55;73.97
74975;BME280;68459;50.836;19.138;2024-01-15T10:17:48;96489.19;;;0.57;73.17
74975;BME280;68459;50.836;19.138;2024-01-15T10:20:54;96466.53;;;0.61;74.03
74975;BME280;68459;50.836;19.138;2024-01-15T10:24:00;96499.97;;;0.62;73.12
74975;BME280;68459;50.836;19.138;2024-01-15T10:27:05;96470.81;;;0.62;72.39
74975;BME280;68459;50.836;19.138;2024-01-15T10:30:11;96461.03;;;0.56;73.06
74975;BME280;68459;50.836;19.138;2024-01-15T10:33:21;96462.50;;;0.52;72.73
74975;BME280;68459;50.836;19.138;2024-01-15T10:36:29;96487.63;;;0.50;73.46
74975;BME280;68459;50.836;19.138;2024-01-15T10:39:34;96488.78;;;0.54;72.70
74975;BME280;68459;50.836;19.138;2024-01-15T10:42:40;96461.50;;;0.53;72.62
74975;BME280;68459;50.836;19.138;2024-01-15T10:45:46;96494.50;;;0.57;72.87
74975;BME280;68459;50.836;19.138;2024-01-15T10:48:50;96510.41;;;0.57;71.60
74975;BME280;68459;50.836;19.138;2024-01-15T10:51:57;96465.59;;;0.49;72.11
74975;BME280;68459;50.836;19.138;2024-01-15T10:55:03;96499.47;;;0.41;72.62
74975;BME280;68459;50.836;19.138;2024-01-15T10:58:14;96496.47;;;0.37;72.47
74975;BME280;68459;50.836;19.138;2024-01-15T11:01:20;96466.28;;;0.31;72.34
74975;BME280;68459;50.836;19.138;2024-01-15T11:04:27;96472.84;;;0.29;71.97
74975;BME280;68459;50.836;19.138;2024-01-15T11:07:33;96464.72;;;0.24;72.26
74975;BME280;68459;50.836;19.138;2024-01-15T11:10:42;96474.09;;;0.26;71.90
74975;BME280;68459;50.836;19.138;2024-01-15T11:13:52;96503.00;;;0.28;71.85
74975;BME280;68459;50.836;19.138;2024-01-15T11:16:57;96450.25;;;0.26;72.44
74975;BME280;68459;50.836;19.138;2024-01-15T11:20:06;96470.63;;;0.26;71.43
74975;BME280;68459;50.836;19.138;2024-01-15T11:23:41;96458.19;;;0.26;71.17
74975;BME280;68459;50.836;19.138;2024-01-15T11:26:46;96467.75;;;0.27;71.25
74975;BME280;68459;50.836;19.138;2024-01-15T11:30:03;96485.28;;;0.28;70.96
74975;BME280;68459;50.836;19.138;2024-01-15T11:33:33;96466.28;;;0.31;71.40
74975;BME280;68459;50.836;19.138;2024-01-15T11:37:02;96459.56;;;0.29;70.66
74975;BME280;68459;50.836;19.138;2024-01-15T11:40:07;96463.84;;;0.30;70.98
74975;BME280;68459;50.836;19.138;2024-01-15T11:43:14;96474.84;;;0.33;71.00
74975;BME280;68459;50.836;19.138;2024-01-15T11:46:25;96459.13;;;0.39;70.18
74975;BME280;68459;50.836;19.138;2024-01-15T11:49:58;96444.41;;;0.43;69.71
74975;BME280;68459;50.836;19.138;2024-01-15T11:53:27;96449.06;;;0.47;69.27
74975;BME280;68459;50.836;19.138;2024-01-15T11:56:39;96469.66;;;0.52;68.67
74975;BME280;68459;50.836;19.138;2024-01-15T11:59:43;96452.94;;;0.51;69.97
74975;BME280;68459;50.836;19.138;2024-01-15T12:02:48;96457.78;;;0.54;70.29
74975;BME280;68459;50.836;19.138;2024-01-15T12:05:53;96457.78;;;0.54;69.94
74975;BME280;68459;50.836;19.138;2024-01-15T12:09:06;96479.81;;;0.55;68.34
74975;BME280;68459;50.836;19.138;2024-01-15T12:12:16;96452.22;;;0.62;68.82
74975;BME280;68459;50.836;19.138;2024-01-15T12:15:27;96466.47;;;0.68;68.63
74975;BME280;68459;50.836;19.138;2024-01-15T12:18:32;96454.59;;;0.70;68.81
74975;BME280;68459;50.836;19.138;2024-01-15T12:21:39;96440.53;;;0.70;69.19
74975;BME280;68459;50.836;19.138;2024-01-15T12:24:42;96446.06;;;0.68;69.48
74975;BME280;68459;50.836;19.138;2024-01-15T12:27:48;96451.97;;;0.70;68.60
74975;BME280;68459;50.836;19.138;2024-01-15T12:30:53;96452.97;;;0.69;68.54
74975;BME280;68459;50.836;19.138;2024-01-15T12:33:57;96428.69;;;0.73;68.84
74975;BME280;68459;50.836;19.138;2024-01-15T12:37:01;96444.59;;;0.73;67.77
74975;BME280;68459;50.836;19.138;2024-01-15T12:40:06;96430.31;;;0.74;68.36
74975;BME280;68459;50.836;19.138;2024-01-15T12:43:13;96451.31;;;0.75;67.86
74975;BME280;68459;50.836;19.138;2024-01-15T12:46:17;96458.63;;;0.80;67.74
74975;BME280;68459;50.836;19.138;2024-01-15T12:49:23;96441.25;;;0.84;68.25
74975;BME280;68459;50.836;19.138;2024-01-15T12:52:28;96434.88;;;0.91;69.09
74975;BME280;68459;50.836;19.138;2024-01-15T12:55:33;96440.69;;;1.00;68.73
74975;BME280;68459;50.836;19.138;2024-01-15T12:58:39;96422.28;;;1.05;67.79
74975;BME280;68459;50.836;19.138;2024-01-15T13:01:43;96444.09;;;1.07;68.41
74975;BME280;68459;50.836;19.138;2024-01-15T13:04:47;96444.09;;;1.07;67.05
74975;BME280;68459;50.836;19.138;2024-01-15T13:07:51;96457.81;;;1.04;65.83
74975;BME280;68459;50.836;19.138;2024-01-15T13:10:55;96466.81;;;1.03;67.85
74975;BME280;68459;50.836;19.138;2024-01-15T13:14:01;96458.03;;;1.02;66.86
74975;BME280;68459;50.836;19.138;2024-01-15T13:17:04;96455.00;;;0.99;67.69
74975;BME280;68459;50.836;19.138;2024-01-15T13:20:09;96464.63;;;0.93;67.10
74975;BME280;68459;50.836;19.138;2024-01-15T13:23:14;96447.16;;;0.86;66.55
74975;BME280;68459;50.836;19.138;2024-01-15T13:26:18;96450.69;;;0.80;67.46
74975;BME280;68459;50.836;19.138;2024-01-15T13:29:24;96458.25;;;0.76;67.24
74975;BME280;68459;50.836;19.138;2024-01-15T13:32:28;96446.22;;;0.74;67.95
74975;BME280;68459;50.836;19.138;2024-01-15T13:35:32;96461.53;;;0.71;67.49
74975;BME280;68459;50.836;19.138;2024-01-15T13:38:38;96452.78;;;0.71;67.61
74975;BME280;68459;50.836;19.138;2024-01-15T13:41:44;96471.56;;;0.69;67.27
74975;BME280;68459;50.836;19.138;2024-01-15T13:44:49;96454.81;;;0.69;66.89
74975;BME280;68459;50.836;19.138;2024-01-15T13:47:53;96445.47;;;0.66;67.39
74975;BME280;68459;50.836;19.138;2024-01-15T13:50:57;96446.50;;;0.65;66.49
74975;BME280;68459;50.836;19.138;2024-01-15T13:54:01;96437.34;;;0.61;67.54
74975;BME280;68459;50.836;19.138;2024-01-15T13:57:06;96449.19;;;0.59;66.88
74975;BME280;68459;50.836;19.138;2024-01-15T14:00:13;96468.84;;;0.51;66.15
74975;BME280;68459;50.836;19.138;2024-01-15T14:03:20;96474.16;;;0.45;67.28
74975;BME280;68459;50.836;19.138;2024-01-15T14:06:24;96448.88;;;0.42;67.21
74975;BME280;68459;50.836;19.138;2024-01-15T14:09:28;96454.66;;;0.39;67.38
74975;BME280;68459;50.836;19.138;2024-01-15T14:12:34;96463.63;;;0.38;67.28
74975;BME280;68459;50.836;19.138;2024-01-15T14:15:40;96464.84;;;0.35;66.73
74975;BME280;68459;50.836;19.138;2024-01-15T14:18:44;96467.72;;;0.34;67.29
74975;BME280;68459;50.836;19.138;2024-01-15T14:21:48;96479.56;;;0.31;66.68
74975;BME280;68459;50.836;19.138;2024-01-15T14:24:52;96460.78;;;0.33;66.70
74975;BME280;68459;50.836;19.138;2024-01-15T14:27:56;96464.88;;;0.29;67.18
74975;BME280;68459;50.836;19.138;2024-01-15T14:31:02;96475.47;;;0.29;66.60
74975;BME280;68459;50.836;19.138;2024-01-15T14:34:08;96472.47;;;0.25;67.21
74975;BME280;68459;50.836;19.138;2024-01-15T14:37:14;96463.69;;;0.25;66.92
74975;BME280;68459;50.836;19.138;2024-01-15T14:40:18;96463.09;;;0.23;67.11
74975;BME280;68459;50.836;19.138;2024-01-15T14:43:22;96477.38;;;0.22;66.78
74975;BME280;68459;50.836;19.138;2024-01-15T14:46:27;96470.88;;;0.18;67.22
74975;BME280;68459;50.836;19.138;2024-01-15T14:49:32;96458.47;;;0.12;66.97
74975;BME280;68459;50.836;19.138;2024-01-15T14:52:37;96463.13;;;0.16;66.97
74975;BME280;68459;50.836;19.138;2024-01-15T14:55:41;96465.16;;;0.14;66.52
74975;BME280;68459;50.836;19.138;2024-01-15T14:58:45;96476.00;;;0.13;66.95
74975;BME280;68459;50.836;19.138;2024-01-15T15:01:50;96474.16;;;0.13;66.92
74975;BME280;68459;50.836;19.138;2024-01-15T15:04:56;96481.31;;;0.13;67.32
74975;BME280;68459;50.836;19.138;2024-01-15T15:08:00;96468.25;;;0.11;67.17
74975;BME280;68459;50.836;19.138;2024-01-15T15:11:05;96478.84;;;0.11;66.73
74975;BME280;68459;50.836;19.138;2024-01-15T15:14:09;96484.16;;;0.11;66.50
74975;BME280;68459;50.836;19.138;2024-01-15T15:17:14;96465.22;;;0.08;66.95
74975;BME280;68459;50.836;19.138;2024-01-15T15:20:18;96475.81;;;0.08;67.28
74975;BME280;68459;50.836;19.138;2024-01-15T15:23:22;96481.72;;;0.10;67.07
74975;BME280;68459;50.836;19.138;2024-01-15T15:26:26;96487.22;;;0.08;66.53
74975;BME280;68459;50.836;19.138;2024-01-15T15:29:30;96482.13;;;0.07;66.99
74975;BME280;68459;50.836;19.138;2024-01-15T15:32:35;96488.47;;;0.06;67.22
74975;BME280;68459;50.836;19.138;2024-01-15T15:35:39;96474.41;;;0.05;67.17
74975;BME280;68459;50.836;19.138;2024-01-15T15:38:43;96480.91;;;0.03;67.16
74975;BME280;68459;50.836;19.138;2024-01-15T15:41:47;96490.34;;;-0.02;67.97
74975;BME280;68459;50.836;19.138;2024-01-15T15:44:52;96490.97;;;-0.06;68.09
74975;BME280;68459;50.836;19.138;2024-01-15T15:48:02;96510.31;;;-0.06;68.12
74975;BME280;68459;50.836;19.138;2024-01-15T15:51:06;96483.03;;;-0.13;68.52
74975;BME280;68459;50.836;19.138;2024-01-15T15:54:10;96498.91;;;-0.13;68.52
74975;BME280;68459;50.836;19.138;2024-01-15T15:57:14;96490.19;;;-0.20;68.92
74975;BME280;68459;50.836;19.138;2024-01-15T16:00:19;96505.47;;;-0.22;69.10
74975;BME280;68459;50.836;19.138;2024-01-15T16:03:24;96507.97;;;-0.27;69.23
74975;BME280;68459;50.836;19.138;2024-01-15T16:06:28;96496.16;;;-0.31;69.77
74975;BME280;68459;50.836;19.138;2024-01-15T16:09:32;96501.25;;;-0.36;70.36
74975;BME280;68459;50.836;19.138;2024-01-15T16:12:36;96505.09;;;-0.39;70.53
74975;BME280;68459;50.836;19.138;2024-01-15T16:15:41;96504.28;;;-0.39;70.00